createdAt,value
2022-09-30T00:01:44.431Z,82.21
2022-09-30T00:04:16.257Z,82.64
2022-09-30T00:06:44.906Z,82.66
2022-09-30T00:09:13.139Z,82.27
2022-09-30T00:11:44.015Z,83.02
2022-09-30T00:14:17.536Z,83.65
2022-09-30T00:16:46.725Z,83.52
2022-09-30T00:19:14.998Z,84.08
2022-09-30T00:21:43.501Z,84.33
2022-09-30T00:24:11.527Z,84.24
2022-09-30T00:26:39.729Z,84.74
2022-09-30T00:29:09.009Z,84.60
2022-09-30T00:31:38.208Z,84.47
2022-09-30T00:34:11.424Z,84.71
2022-09-30T00:36:43.558Z,85.28
2022-09-30T00:39:14.765Z,85.30
2022-09-30T00:41:43.396Z,84.88
2022-09-30T00:44:51.737Z,85.64
2022-09-30T00:47:32.078Z,85.61
2022-09-30T00:50:04.412Z,85.80
2022-09-30T00:52:33.403Z,85.87
2022-09-30T00:55:05.040Z,85.30
2022-09-30T00:57:33.559Z,84.93
2022-09-30T01:00:03.589Z,84.77
2022-09-30T01:02:32.162Z,84.65
2022-09-30T01:05:00.030Z,84.79
2022-09-30T01:07:29.134Z,85.13
2022-09-30T01:09:58.244Z,84.87
2022-09-30T01:12:28.028Z,84.03
2022-09-30T01:14:58.252Z,83.84
2022-09-30T01:17:39.042Z,83.41
2022-09-30T01:20:37.692Z,83.23
2022-09-30T01:23:33.260Z,84.20
2022-09-30T01:26:33.902Z,84.12
2022-09-30T01:29:20.215Z,83.92
2022-09-30T01:31:58.518Z,84.13
2022-09-30T01:34:37.512Z,84.06
2022-09-30T01:37:15.422Z,83.64
2022-09-30T01:39:52.711Z,84.16
2022-09-30T01:42:27.133Z,84.17
2022-09-30T01:45:03.906Z,83.55
2022-09-30T01:47:38.225Z,83.46
2022-09-30T01:50:13.717Z,83.67
2022-09-30T01:52:50.335Z,83.66
2022-09-30T01:55:24.600Z,83.64
2022-09-30T01:57:58.804Z,82.92
2022-09-30T02:00:27.838Z,82.61
2022-09-30T02:03:02.901Z,82.45
2022-09-30T02:05:39.455Z,82.32
2022-09-30T02:08:13.517Z,82.71
2022-09-30T02:10:49.054Z,82.14
2022-09-30T02:13:26.843Z,82.02
2022-09-30T02:15:58.608Z,82.97
2022-09-30T02:18:34.869Z,82.14
2022-09-30T02:21:06.700Z,82.80
2022-09-30T02:23:40.751Z,82.40
2022-09-30T02:26:14.837Z,82.75
2022-09-30T02:28:48.244Z,83.31
2022-09-30T02:31:19.932Z,83.49
2022-09-30T02:33:54.388Z,83.54
2022-09-30T02:36:29.123Z,83.36
2022-09-30T02:39:02.655Z,83.86
2022-09-30T02:41:36.185Z,84.28
2022-09-30T02:44:04.513Z,83.33
2022-09-30T02:46:42.961Z,83.78
2022-09-30T02:49:20.521Z,83.91
2022-09-30T02:52:09.516Z,83.68
2022-09-30T02:54:49.626Z,84.28
2022-09-30T02:57:23.348Z,84.53
2022-09-30T02:59:54.123Z,84.03
2022-09-30T03:02:27.601Z,84.01
2022-09-30T03:04:57.780Z,84.45
2022-09-30T03:07:25.994Z,84.41
2022-09-30T03:09:58.333Z,85.49
2022-09-30T03:12:40.329Z,84.98
2022-09-30T03:15:23.241Z,85.64
2022-09-30T03:18:38.926Z,85.60
2022-09-30T03:21:22.158Z,85.49
2022-09-30T03:24:16.708Z,86.11
2022-09-30T03:26:53.936Z,86.18
2022-09-30T03:29:29.197Z,86.23
2022-09-30T03:32:11.409Z,86.43
2022-09-30T03:34:52.208Z,86.70
2022-09-30T03:37:30.561Z,86.91
2022-09-30T03:40:03.990Z,86.60
2022-09-30T03:42:39.455Z,86.68
2022-09-30T03:45:14.540Z,86.62
2022-09-30T03:47:47.267Z,86.33
2022-09-30T03:50:20.283Z,86.84
2022-09-30T03:52:51.002Z,86.64
2022-09-30T03:55:20.311Z,86.49
2022-09-30T03:57:49.507Z,86.62
2022-09-30T04:00:19.358Z,86.23
2022-09-30T04:02:47.397Z,86.55
2022-09-30T04:05:15.691Z,86.27
2022-09-30T04:07:43.650Z,86.04
2022-09-30T04:10:12.938Z,86.76
2022-09-30T04:12:40.783Z,86.49
2022-09-30T04:15:10.247Z,86.03
2022-09-30T04:17:38.079Z,86.44
2022-09-30T04:20:07.129Z,86.68
2022-09-30T04:22:35.034Z,87.15
2022-09-30T04:25:03.185Z,86.89
2022-09-30T04:27:32.442Z,87.55
2022-09-30T04:30:01.016Z,87.76
2022-09-30T04:32:28.993Z,88.51
2022-09-30T04:34:57.558Z,87.88
2022-09-30T04:37:25.464Z,87.74
2022-09-30T04:39:54.033Z,87.86
2022-09-30T04:42:21.882Z,87.68
2022-09-30T04:44:51.773Z,88.04
2022-09-30T04:47:19.615Z,87.97
2022-09-30T04:49:47.898Z,87.80
2022-09-30T04:52:15.749Z,87.53
2022-09-30T04:54:44.253Z,88.33
2022-09-30T04:57:14.072Z,87.71
2022-09-30T04:59:42.704Z,87.60
2022-09-30T05:02:12.852Z,87.80
2022-09-30T05:04:41.369Z,87.08
2022-09-30T05:07:09.215Z,87.13
2022-09-30T05:09:37.785Z,87.06
2022-09-30T05:12:05.756Z,87.76
2022-09-30T05:14:35.001Z,87.61
2022-09-30T05:17:03.097Z,87.67
2022-09-30T05:19:33.033Z,87.76
2022-09-30T05:22:00.879Z,87.95
2022-09-30T05:24:30.404Z,87.56
2022-09-30T05:26:58.281Z,87.03
2022-09-30T05:29:26.610Z,87.26
2022-09-30T05:31:54.924Z,86.94
2022-09-30T05:34:26.146Z,86.41
2022-09-30T05:36:57.854Z,100.00
2022-09-30T05:39:31.276Z,85.49
2022-09-30T05:41:59.609Z,85.60
2022-09-30T05:44:34.392Z,85.02
2022-09-30T05:47:02.827Z,84.31
2022-09-30T05:49:34.836Z,83.61
2022-09-30T05:52:05.306Z,83.83
2022-09-30T05:54:34.201Z,83.85
2022-09-30T05:57:04.803Z,82.91
2022-09-30T05:59:34.710Z,84.12
2022-09-30T06:02:02.728Z,83.59
2022-09-30T06:04:30.746Z,84.23
2022-09-30T06:06:58.701Z,85.57
2022-09-30T06:09:28.915Z,85.57
2022-09-30T06:11:58.073Z,82.88
2022-09-30T06:14:28.553Z,83.90
2022-09-30T06:16:56.503Z,81.29
2022-09-30T06:19:24.971Z,82.90
2022-09-30T06:21:53.006Z,84.35
2022-09-30T06:24:21.934Z,83.84
2022-09-30T06:26:51.281Z,83.61
2022-09-30T06:29:19.938Z,82.37
2022-09-30T06:31:48.476Z,81.50
2022-09-30T06:34:17.262Z,78.87
2022-09-30T06:36:45.237Z,80.93
2022-09-30T06:39:14.052Z,79.32
2022-09-30T06:41:44.033Z,77.63
2022-09-30T06:44:27.071Z,78.31
2022-09-30T06:46:55.536Z,79.54
2022-09-30T06:49:24.872Z,79.50
2022-09-30T06:51:53.235Z,80.11
2022-09-30T06:54:22.260Z,78.94
2022-09-30T06:56:50.536Z,81.09
2022-09-30T06:59:19.034Z,77.88
2022-09-30T07:01:48.432Z,77.76
2022-09-30T07:04:16.673Z,78.40
2022-09-30T07:06:45.516Z,78.88
2022-09-30T07:09:14.826Z,79.22
2022-09-30T07:11:42.829Z,80.81
2022-09-30T07:14:13.724Z,82.53
2022-09-30T07:16:41.713Z,83.03
2022-09-30T07:19:12.500Z,82.80
2022-09-30T07:21:40.423Z,80.49
2022-09-30T07:24:09.683Z,80.50
2022-09-30T07:26:37.591Z,80.60
2022-09-30T07:29:07.586Z,79.74
2022-09-30T07:31:36.025Z,78.15
2022-09-30T07:34:07.570Z,77.40
2022-09-30T07:36:38.307Z,77.34
2022-09-30T07:39:10.175Z,76.01
2022-09-30T07:41:41.174Z,74.49
2022-09-30T07:44:14.930Z,73.22
2022-09-30T07:49:15.469Z,69.33
2022-09-30T07:51:45.605Z,71.39
2022-09-30T07:54:16.207Z,70.95
2022-09-30T07:59:36.212Z,72.25
2022-09-30T08:02:04.754Z,69.20
2022-09-30T08:04:33.405Z,62.69
2022-09-30T08:07:04.784Z,58.10
2022-09-30T08:09:33.121Z,54.72
2022-09-30T08:12:03.446Z,52.38
2022-09-30T08:14:32.193Z,51.44
2022-09-30T08:17:00.669Z,49.18
2022-09-30T08:19:31.217Z,43.09
2022-09-30T08:21:59.323Z,43.73
2022-09-30T08:24:29.013Z,41.60
2022-09-30T08:26:57.077Z,41.03
2022-09-30T08:29:50.009Z,39.85
2022-09-30T08:32:13.756Z,36.59
2022-09-30T08:34:42.376Z,37.56
2022-09-30T08:37:11.081Z,37.54
2022-09-30T08:39:42.666Z,38.62
2022-09-30T08:42:37.488Z,36.23
2022-09-30T08:45:21.276Z,36.72
2022-09-30T08:47:58.106Z,37.01
2022-09-30T08:50:36.144Z,36.13
2022-09-30T08:53:10.846Z,37.94
2022-09-30T08:55:43.929Z,36.12
2022-09-30T08:58:27.877Z,36.70
2022-09-30T09:01:00.539Z,36.62
2022-09-30T09:03:33.989Z,35.19
2022-09-30T09:06:17.138Z,38.26
2022-09-30T09:09:02.160Z,37.06
2022-09-30T09:11:45.478Z,38.57
2022-09-30T09:14:28.965Z,37.68
2022-09-30T09:17:15.994Z,36.48
2022-09-30T09:19:53.706Z,37.06
2022-09-30T09:22:29.632Z,38.18
2022-09-30T09:24:59.432Z,37.01
2022-09-30T09:27:38.617Z,36.54
2022-09-30T09:30:20.198Z,40.31
2022-09-30T09:32:53.363Z,39.79
2022-09-30T09:35:35.140Z,38.86
2022-09-30T09:38:26.089Z,40.54
2022-09-30T09:41:13.167Z,42.43
2022-09-30T09:43:52.642Z,41.73
2022-09-30T09:46:28.698Z,42.16
2022-09-30T09:49:31.378Z,40.54
2022-09-30T09:52:26.157Z,43.12
2022-09-30T09:54:56.946Z,43.24
2022-09-30T09:57:28.272Z,42.77
2022-09-30T10:02:34.262Z,44.22
2022-09-30T10:05:04.038Z,43.02
2022-09-30T10:07:34.736Z,44.13
2022-09-30T10:10:23.352Z,43.73
2022-09-30T10:12:51.964Z,43.16
2022-09-30T10:15:24.640Z,43.11
2022-09-30T10:17:55.637Z,43.45
2022-09-30T10:20:33.189Z,43.00
2022-09-30T10:23:19.017Z,43.08
2022-09-30T10:25:57.693Z,44.20
2022-09-30T10:28:28.162Z,47.35
2022-09-30T10:31:03.779Z,46.33
2022-09-30T10:33:41.773Z,44.43
2022-09-30T10:36:13.919Z,43.51
2022-09-30T10:38:59.968Z,42.61
2022-09-30T10:41:33.381Z,41.83
2022-09-30T10:44:03.617Z,43.21
2022-09-30T10:46:39.065Z,42.90
2022-09-30T10:49:12.949Z,43.28
2022-09-30T10:51:47.192Z,41.98
2022-09-30T10:54:51.275Z,43.88
2022-09-30T10:57:24.479Z,44.39
2022-09-30T10:59:56.898Z,42.49
2022-09-30T11:02:34.430Z,43.36
2022-09-30T11:05:15.181Z,42.67
2022-09-30T11:07:51.473Z,42.91
2022-09-30T11:10:33.226Z,43.24
2022-09-30T11:13:09.011Z,44.73
2022-09-30T11:15:44.165Z,43.21
2022-09-30T11:18:23.858Z,42.85
2022-09-30T11:20:57.157Z,42.20
2022-09-30T11:23:32.009Z,44.47
2022-09-30T11:26:06.953Z,43.58
2022-09-30T11:28:51.730Z,43.83
2022-09-30T11:31:31.314Z,43.67
2022-09-30T11:34:21.430Z,43.76
2022-09-30T11:36:59.758Z,43.16
2022-09-30T11:40:01.022Z,41.31
2022-09-30T11:42:37.218Z,40.79
2022-09-30T11:45:20.797Z,40.14
2022-09-30T11:48:03.192Z,40.64
2022-09-30T11:50:46.617Z,39.98
2022-09-30T11:53:22.641Z,41.30
2022-09-30T11:56:05.467Z,40.02
2022-09-30T11:58:41.621Z,40.73
2022-09-30T12:01:21.577Z,40.77
2022-09-30T12:03:59.038Z,42.25
2022-09-30T12:06:35.006Z,42.47
2022-09-30T12:09:15.358Z,41.26
2022-09-30T12:11:50.743Z,40.84
2022-09-30T12:14:24.390Z,40.47
2022-09-30T12:16:52.795Z,41.19
2022-09-30T12:19:26.331Z,40.74
2022-09-30T12:22:02.685Z,39.86
2022-09-30T12:24:36.725Z,39.54
2022-09-30T12:27:12.721Z,41.12
2022-09-30T12:30:01.847Z,40.64
2022-09-30T12:33:03.146Z,40.89
2022-09-30T12:36:11.486Z,42.73
2022-09-30T12:39:09.718Z,44.80
2022-09-30T12:41:53.641Z,44.51
2022-09-30T12:44:45.219Z,44.18
2022-09-30T12:47:28.694Z,42.57
2022-09-30T12:49:59.592Z,42.34
2022-09-30T12:52:33.945Z,42.16
2022-09-30T12:55:09.073Z,42.06
2022-09-30T12:57:41.377Z,41.16
2022-09-30T13:00:17.695Z,41.61
2022-09-30T13:02:50.113Z,41.50
2022-09-30T13:05:50.217Z,40.71
2022-09-30T13:08:50.914Z,39.99
2022-09-30T13:11:41.340Z,42.53
2022-09-30T13:14:26.225Z,41.62
2022-09-30T13:17:25.816Z,42.50
2022-09-30T13:19:55.889Z,41.46
2022-09-30T13:23:00.328Z,40.48
2022-09-30T13:25:28.845Z,40.53
2022-09-30T13:28:32.231Z,41.21
2022-09-30T13:31:14.864Z,42.52
2022-09-30T13:33:46.242Z,43.15
2022-09-30T13:36:28.481Z,42.34
2022-09-30T13:39:19.904Z,42.14
2022-09-30T13:41:58.645Z,40.89
2022-09-30T13:44:35.297Z,40.99
2022-09-30T13:47:16.473Z,40.99
2022-09-30T13:49:52.335Z,41.48
2022-09-30T13:52:26.011Z,42.74
2022-09-30T13:54:55.830Z,40.58
2022-09-30T13:57:30.022Z,40.29
2022-09-30T14:00:07.255Z,41.36
2022-09-30T14:02:56.003Z,41.59
2022-09-30T14:05:40.230Z,42.00
2022-09-30T14:08:25.910Z,41.63
2022-09-30T14:11:21.938Z,40.38
2022-09-30T14:14:05.329Z,40.88
2022-09-30T14:17:09.223Z,41.13
2022-09-30T14:19:59.626Z,41.67
2022-09-30T14:22:30.413Z,40.78
2022-09-30T14:24:59.546Z,42.05
2022-09-30T14:27:45.750Z,41.53
2022-09-30T14:30:19.090Z,42.09
2022-09-30T14:32:51.088Z,43.80
2022-09-30T14:38:14.465Z,43.58
2022-09-30T14:40:51.933Z,43.73
2022-09-30T14:43:36.673Z,44.02
2022-09-30T14:46:10.026Z,44.91
2022-09-30T14:48:42.198Z,46.29
2022-09-30T14:51:13.538Z,44.31
2022-09-30T14:53:43.325Z,45.50
2022-09-30T14:56:22.346Z,45.04
2022-09-30T14:58:52.304Z,44.36
2022-09-30T15:01:23.254Z,44.48
2022-09-30T15:03:55.473Z,44.53
2022-09-30T15:06:28.257Z,43.75
2022-09-30T15:09:03.526Z,43.63
2022-09-30T15:11:37.325Z,45.78
2022-09-30T15:14:11.273Z,46.20
2022-09-30T15:16:47.306Z,44.36
2022-09-30T15:19:21.153Z,43.73
2022-09-30T15:21:51.267Z,45.16
2022-09-30T15:24:21.332Z,45.46
2022-09-30T15:26:51.219Z,45.83
2022-09-30T15:29:19.091Z,45.59
2022-09-30T15:31:50.390Z,45.51
2022-09-30T15:34:24.025Z,44.87
2022-09-30T15:37:00.110Z,46.34
2022-09-30T15:39:50.491Z,46.89
2022-09-30T15:42:32.309Z,48.16
2022-09-30T15:45:00.109Z,48.45
2022-09-30T15:47:29.550Z,48.70
2022-09-30T15:49:58.845Z,48.67
2022-09-30T15:52:37.591Z,49.20
2022-09-30T15:55:36.921Z,49.09
2022-09-30T15:58:05.508Z,50.40
2022-09-30T16:00:44.085Z,50.42
2022-09-30T16:03:30.996Z,51.01
2022-09-30T16:06:13.628Z,50.75
2022-09-30T16:08:44.887Z,51.34
2022-09-30T16:11:21.116Z,51.63
2022-09-30T16:13:50.332Z,51.01
2022-09-30T16:16:25.200Z,51.78
2022-09-30T16:18:55.152Z,51.45
2022-09-30T16:21:44.419Z,52.67
2022-09-30T16:24:44.047Z,52.20
2022-09-30T16:27:31.656Z,52.52
2022-09-30T16:30:00.192Z,54.07
2022-09-30T16:32:32.749Z,53.49
2022-09-30T16:35:00.789Z,54.55
2022-09-30T16:37:30.283Z,55.02
2022-09-30T16:40:08.537Z,54.80
2022-09-30T16:42:36.659Z,57.20
2022-09-30T16:45:04.946Z,57.55
2022-09-30T16:47:32.679Z,58.45
2022-09-30T16:50:00.864Z,59.75
2022-09-30T16:52:30.026Z,61.34
2022-09-30T16:54:57.828Z,61.72
2022-09-30T16:57:25.898Z,62.34
2022-09-30T16:59:53.645Z,63.81
2022-09-30T17:02:21.907Z,63.21
2022-09-30T17:04:49.750Z,65.08
2022-09-30T17:07:18.182Z,65.51
2022-09-30T17:09:47.414Z,66.93
2022-09-30T17:12:15.272Z,66.51
2022-09-30T17:14:43.755Z,67.23
2022-09-30T17:17:13.624Z,68.35
2022-09-30T17:19:42.157Z,68.82
2022-09-30T17:22:10.048Z,69.70
2022-09-30T17:24:37.813Z,70.23
2022-09-30T17:27:08.087Z,71.71
2022-09-30T17:29:41.829Z,72.42
2022-09-30T17:32:10.866Z,72.94
2022-09-30T17:34:38.990Z,73.22
2022-09-30T17:39:35.279Z,74.65
2022-09-30T17:42:20.869Z,75.43
2022-09-30T17:44:50.196Z,76.99
2022-09-30T17:47:18.683Z,76.23
2022-09-30T17:49:46.462Z,77.07
2022-09-30T17:52:14.941Z,76.61
2022-09-30T17:54:42.875Z,77.88
2022-09-30T17:57:11.216Z,78.37
2022-09-30T17:59:39.041Z,78.44
2022-09-30T18:02:11.206Z,79.43
2022-09-30T18:04:39.072Z,78.96
2022-09-30T18:07:08.450Z,78.96
2022-09-30T18:09:37.216Z,79.98
2022-09-30T18:12:06.536Z,79.58
2022-09-30T18:14:35.876Z,80.06
2022-09-30T18:17:05.845Z,80.70
2022-09-30T18:19:35.689Z,80.79
2022-09-30T18:22:04.198Z,81.76
2022-09-30T18:24:49.426Z,81.74
2022-09-30T18:27:17.574Z,82.19
2022-09-30T18:29:45.572Z,82.07
2022-09-30T18:32:13.664Z,82.55
2022-09-30T18:34:42.760Z,82.50
2022-09-30T18:37:11.403Z,82.91
2022-09-30T18:39:39.814Z,82.87
2022-09-30T18:42:07.858Z,82.94
2022-09-30T18:44:37.638Z,83.78
2022-09-30T18:47:06.393Z,84.64
2022-09-30T18:49:34.244Z,85.05
2022-09-30T18:52:04.902Z,85.06
2022-09-30T18:54:33.720Z,84.74
2022-09-30T18:57:02.390Z,84.73
2022-09-30T18:59:30.120Z,84.87
2022-09-30T19:02:00.655Z,83.98
2022-09-30T19:04:29.020Z,84.56
2022-09-30T19:06:57.534Z,84.61
2022-09-30T19:09:27.117Z,84.44
2022-09-30T19:11:55.880Z,84.83
2022-09-30T19:14:24.610Z,84.78
2022-09-30T19:16:52.509Z,84.01
2022-09-30T19:19:22.768Z,85.70
2022-09-30T19:21:51.029Z,85.71
2022-09-30T19:24:18.975Z,86.15
2022-09-30T19:26:48.798Z,86.55
2022-09-30T19:29:18.403Z,86.12
2022-09-30T19:31:46.976Z,85.66
2022-09-30T19:34:27.776Z,85.94
2022-09-30T19:37:00.208Z,86.50
2022-09-30T19:39:41.300Z,86.52
2022-09-30T19:42:18.617Z,86.12
2022-09-30T19:44:46.532Z,87.09
2022-09-30T19:47:15.186Z,87.37
2022-09-30T19:49:43.051Z,87.14
2022-09-30T19:52:18.888Z,86.67
2022-09-30T19:54:48.482Z,87.06
2022-09-30T19:57:17.624Z,86.76
2022-09-30T19:59:45.886Z,87.49
2022-09-30T20:02:13.720Z,87.65
2022-09-30T20:04:44.082Z,88.25
2022-09-30T20:07:12.047Z,87.52
2022-09-30T20:09:40.215Z,87.66
2022-09-30T20:12:07.998Z,87.33
2022-09-30T20:14:54.904Z,87.65
2022-09-30T20:17:22.852Z,87.83
2022-09-30T20:20:05.103Z,87.68
2022-09-30T20:22:33.367Z,87.12
2022-09-30T20:25:01.120Z,87.75
2022-09-30T20:27:31.461Z,87.89
2022-09-30T20:30:01.173Z,88.70
2022-09-30T20:32:30.779Z,88.00
2022-09-30T20:34:59.144Z,88.33
2022-09-30T20:37:27.397Z,89.23
2022-09-30T20:39:57.071Z,88.32
2022-09-30T20:42:28.139Z,88.44
2022-09-30T20:45:01.564Z,88.18
2022-09-30T20:47:31.293Z,88.45
2022-09-30T20:49:59.522Z,88.71
2022-09-30T20:52:29.786Z,88.88
2022-09-30T20:55:00.751Z,89.23
2022-09-30T20:57:30.046Z,89.71
2022-09-30T20:59:59.219Z,90.38
2022-09-30T21:02:29.431Z,90.12
2022-09-30T21:04:59.733Z,90.88
2022-09-30T21:07:28.658Z,89.56
2022-09-30T21:09:57.757Z,90.09
2022-09-30T21:12:25.701Z,89.79
2022-09-30T21:14:54.320Z,90.30
2022-09-30T21:17:22.049Z,89.52
2022-09-30T21:19:50.394Z,89.72
2022-09-30T21:22:20.275Z,89.21
2022-09-30T21:24:48.606Z,88.70
2022-09-30T21:27:16.406Z,89.21
2022-09-30T21:29:44.652Z,89.73
2022-09-30T21:32:12.905Z,89.33
2022-09-30T21:34:41.545Z,88.73
2022-09-30T21:37:09.809Z,89.32
2022-09-30T21:39:39.037Z,88.70
2022-09-30T21:42:07.492Z,89.46
2022-09-30T21:44:35.735Z,88.93
2022-09-30T21:47:03.648Z,89.21
2022-09-30T21:49:31.584Z,88.91
2022-09-30T21:52:00.081Z,89.34
2022-09-30T21:54:29.142Z,89.18
2022-09-30T21:56:58.350Z,89.80
2022-09-30T21:59:26.634Z,89.90
2022-09-30T22:01:54.922Z,89.17
2022-09-30T22:04:22.850Z,89.49
2022-09-30T22:06:50.740Z,89.48
2022-09-30T22:09:19.436Z,88.85
2022-09-30T22:11:48.561Z,88.95
2022-09-30T22:14:18.540Z,88.86
2022-09-30T22:16:47.215Z,88.56
2022-09-30T22:19:15.182Z,89.77
2022-09-30T22:21:43.990Z,89.46
2022-09-30T22:24:12.303Z,89.89
2022-09-30T22:26:42.218Z,90.19
2022-09-30T22:29:13.224Z,89.16
2022-09-30T22:31:42.861Z,88.74
2022-09-30T22:34:32.121Z,89.31
2022-09-30T22:37:18.898Z,89.21
2022-09-30T22:39:46.775Z,90.23
2022-09-30T22:42:14.587Z,88.96
2022-09-30T22:44:44.505Z,90.25
2022-09-30T22:47:14.473Z,90.77
2022-09-30T22:49:43.408Z,90.10
2022-09-30T22:52:11.276Z,89.02
2022-09-30T22:54:39.937Z,90.70
2022-09-30T22:57:10.219Z,90.18
2022-09-30T22:59:38.238Z,89.63
2022-09-30T23:02:06.390Z,89.43
2022-09-30T23:04:36.586Z,90.09
2022-09-30T23:07:05.761Z,90.63
2022-09-30T23:09:33.714Z,91.04
2022-09-30T23:12:02.198Z,90.47
2022-09-30T23:14:30.587Z,89.96
2022-09-30T23:16:58.442Z,90.82
2022-09-30T23:19:26.863Z,90.27
2022-09-30T23:21:56.945Z,89.37
2022-09-30T23:24:24.823Z,89.78
2022-09-30T23:26:52.776Z,90.13
2022-09-30T23:29:21.399Z,90.19
2022-09-30T23:31:49.808Z,90.30
2022-09-30T23:34:18.502Z,90.27
2022-09-30T23:36:47.250Z,90.74
2022-09-30T23:39:19.550Z,90.33
2022-09-30T23:41:49.041Z,90.00
2022-09-30T23:44:18.891Z,89.97
2022-09-30T23:47:01.886Z,89.74
2022-09-30T23:49:32.431Z,90.31
2022-09-30T23:52:01.148Z,89.86
2022-09-30T23:54:30.482Z,88.96
2022-09-30T23:56:59.100Z,88.44
2022-09-30T23:59:26.997Z,90.13
